Metar z połowy godziny Komunikat METAR ze strony awiacja.imgw.pl Metar G30 EPSN METAR EPSN 240500Z 19008KT 4000 BR BKN003 OVC010 03/02 Q1015 RMK 025 097 8/6=